Time;durP1;ratioP1;P1;durP2;ratioP2;P2;SDS_P1;SDS_P2;PMS_P1;PMS_P2;Temp;Humidity;BMP_temperature;BMP_pressure;BME280_temperature;BME280_humidity;BME280_pressure;Samples;Min_cycle;Max_cycle;Signal;HPM_P1;HPM_P2
2022/03/23 00:01:45;;;;;;;19.93;15.97;;;10.20;60.50;;;;;;5054493;28;20265;-66
2022/03/23 00:04:11;;;;;;;18.97;16.90;;;10.20;60.90;;;;;;5054042;28;20448;-73
2022/03/23 00:06:37;;;;;;;20.33;17.90;;;10.20;60.70;;;;;;5054212;28;20407;-65
2022/03/23 00:09:04;;;;;;;20.43;15.63;;;10.20;60.80;;;;;;5054129;28;20421;-66
2022/03/23 00:11:30;;;;;;;19.47;16.43;;;10.10;61.10;;;;;;5053482;28;20418;-65
2022/03/23 00:13:56;;;;;;;21.20;18.97;;;10.10;61.40;;;;;;5054426;28;20402;-65
2022/03/23 00:16:22;;;;;;;21.27;17.03;;;10.10;62.00;;;;;;5053420;28;20178;-66
2022/03/23 00:18:48;;;;;;;22.67;20.40;;;10.00;61.50;;;;;;5053667;28;20586;-67
2022/03/23 00:21:14;;;;;;;18.20;16.30;;;10.00;61.50;;;;;;5052791;28;20545;-66
2022/03/23 00:23:39;;;;;;;21.80;18.87;;;10.00;62.00;;;;;;5053535;28;20216;-66
2022/03/23 00:26:06;;;;;;;24.53;17.60;;;10.00;62.70;;;;;;5053822;28;20414;-66
2022/03/23 00:28:32;;;;;;;24.37;20.30;;;10.00;62.50;;;;;;5052772;28;20666;-66
2022/03/23 00:30:58;;;;;;;22.20;17.30;;;10.00;62.50;;;;;;5053616;28;20509;-66
2022/03/23 00:33:24;;;;;;;20.50;18.40;;;9.90;63.70;;;;;;5053019;28;20195;-66
2022/03/23 00:35:50;;;;;;;19.60;15.57;;;9.90;64.10;;;;;;5053524;28;20411;-66
2022/03/23 00:38:17;;;;;;;17.77;15.03;;;9.90;64.30;;;;;;5052968;28;20187;-66
2022/03/23 00:40:44;;;;;;;17.73;15.80;;;9.90;63.70;;;;;;5053593;28;20417;-66
2022/03/23 00:43:11;;;;;;;19.57;15.87;;;9.90;63.70;;;;;;5053461;28;20416;-66
2022/03/23 00:45:37;;;;;;;19.50;16.17;;;9.90;63.30;;;;;;5052674;28;20840;-66
2022/03/23 00:48:04;;;;;;;19.20;17.13;;;9.90;64.00;;;;;;5053281;28;20808;-66
2022/03/23 00:50:30;;;;;;;22.47;17.23;;;9.90;64.00;;;;;;5052722;28;20446;-66
2022/03/23 00:52:56;;;;;;;20.10;16.90;;;9.90;64.30;;;;;;5053330;28;20415;-66
2022/03/23 00:55:22;;;;;;;20.47;16.70;;;9.90;64.60;;;;;;5052667;28;20895;-66
2022/03/23 00:57:48;;;;;;;21.13;19.03;;;9.80;64.70;;;;;;5052844;28;20258;-66
2022/03/23 01:00:17;;;;;;;19.57;16.33;;;9.80;64.50;;;;;;5053559;28;20419;-66
2022/03/23 01:02:44;;;;;;;21.67;18.30;;;9.70;64.50;;;;;;5052795;28;20417;-65
2022/03/23 01:05:11;;;;;;;19.93;16.30;;;9.60;65.30;;;;;;5052765;28;20410;-66
2022/03/23 01:07:38;;;;;;;23.00;18.30;;;9.60;65.70;;;;;;5052066;28;20853;-66
2022/03/23 01:10:06;;;;;;;19.40;16.77;;;9.70;65.50;;;;;;5053216;28;20495;-66
2022/03/23 01:12:32;;;;;;;21.00;16.20;;;9.60;65.10;;;;;;5052388;28;20417;-66
2022/03/23 01:14:58;;;;;;;20.60;15.83;;;9.60;65.60;;;;;;5052971;28;20887;-66
2022/03/23 01:17:25;;;;;;;19.53;17.47;;;9.60;65.60;;;;;;5052262;28;20438;-66
2022/03/23 01:19:51;;;;;;;19.43;16.20;;;9.60;66.00;;;;;;5051330;28;20446;-66
2022/03/23 01:22:17;;;;;;;19.17;16.27;;;9.60;66.00;;;;;;5052165;28;20523;-66
2022/03/23 01:24:44;;;;;;;21.20;14.70;;;9.60;66.20;;;;;;5052911;28;20421;-66
2022/03/23 01:27:09;;;;;;;24.90;19.47;;;9.50;66.40;;;;;;5052645;28;20495;-66
2022/03/23 01:29:36;;;;;;;38.27;17.50;;;9.40;67.00;;;;;;5052130;28;20444;-66
2022/03/23 01:32:02;;;;;;;21.90;17.13;;;9.40;67.10;;;;;;5053099;28;20613;-66
2022/03/23 01:34:27;;;;;;;20.50;15.73;;;9.30;67.40;;;;;;5051757;28;20422;-66
2022/03/23 01:36:53;;;;;;;20.43;17.47;;;9.30;67.50;;;;;;5052308;28;20416;-66
2022/03/23 01:39:19;;;;;;;17.97;15.70;;;9.30;67.70;;;;;;5052030;28;20409;-66
2022/03/23 01:41:45;;;;;;;20.67;17.20;;;9.30;67.80;;;;;;5052327;28;20534;-66
2022/03/23 01:44:13;;;;;;;20.97;16.53;;;9.30;67.60;;;;;;5052534;28;20500;-66
2022/03/23 01:47:08;;;;;;;20.73;16.00;;;9.30;66.90;;;;;;5050708;28;20181;-66
2022/03/23 01:49:39;;;;;;;20.60;15.40;;;9.30;67.00;;;;;;5052121;28;20504;-66
2022/03/23 01:52:08;;;;;;;16.73;14.43;;;9.30;67.40;;;;;;5052571;28;20412;-66
2022/03/23 01:54:36;;;;;;;18.17;15.37;;;9.20;68.10;;;;;;5051812;28;20409;-66
2022/03/23 01:57:04;;;;;;;18.20;15.37;;;9.20;68.20;;;;;;5053054;28;20416;-66
2022/03/23 01:59:29;;;;;;;20.13;15.80;;;9.20;68.40;;;;;;5055724;28;20499;-66
2022/03/23 02:01:56;;;;;;;21.00;15.83;;;9.10;68.80;;;;;;5056179;28;20413;-66
2022/03/23 02:04:24;;;;;;;21.63;16.33;;;9.10;69.20;;;;;;5055793;28;20406;-66
2022/03/23 02:06:50;;;;;;;20.70;16.40;;;9.00;69.10;;;;;;5056122;28;20416;-66
2022/03/23 02:09:17;;;;;;;20.97;15.93;;;9.00;69.20;;;;;;5056477;28;20420;-66
2022/03/23 02:11:43;;;;;;;22.60;15.90;;;9.00;69.30;;;;;;5056024;28;20453;-66
2022/03/23 02:14:09;;;;;;;23.53;16.53;;;9.00;69.60;;;;;;5056322;28;20495;-66
2022/03/23 02:16:47;;;;;;;18.00;15.10;;;9.00;69.80;;;;;;5055675;28;20500;-66
2022/03/23 02:19:13;;;;;;;20.60;15.90;;;8.90;69.70;;;;;;5055115;28;20779;-66
2022/03/23 02:21:54;;;;;;;18.63;14.97;;;8.90;70.10;;;;;;5055724;28;20721;-66
2022/03/23 02:24:25;;;;;;;18.30;14.77;;;8.80;70.40;;;;;;5055798;28;20412;-70
2022/03/23 02:26:52;;;;;;;22.77;16.43;;;8.90;70.80;;;;;;5055913;28;20408;-66
2022/03/23 02:29:20;;;;;;;19.63;16.00;;;8.80;70.40;;;;;;5055961;28;20412;-66
2022/03/23 02:31:45;;;;;;;22.33;15.30;;;8.90;70.60;;;;;;5056175;28;20412;-66
2022/03/23 02:34:12;;;;;;;18.70;15.10;;;8.80;70.70;;;;;;5055998;28;20531;-66
2022/03/23 02:36:38;;;;;;;17.67;15.37;;;8.80;71.40;;;;;;5054411;28;20227;-66
2022/03/23 02:39:04;;;;;;;18.10;16.07;;;8.80;71.20;;;;;;5055897;28;20533;-66
2022/03/23 02:41:30;;;;;;;19.83;16.33;;;8.80;70.90;;;;;;5055214;28;20615;-66
2022/03/23 02:43:57;;;;;;;18.53;14.30;;;8.70;70.90;;;;;;5055420;28;20738;-66
2022/03/23 02:46:23;;;;;;;19.73;16.07;;;8.70;71.10;;;;;;5055177;28;20413;-66
2022/03/23 02:48:52;;;;;;;15.43;13.80;;;8.70;71.40;;;;;;5055554;28;20482;-66
2022/03/23 02:51:18;;;;;;;15.97;14.30;;;8.60;70.90;;;;;;5054464;28;20512;-66
2022/03/23 03:02:59;;;;;;;16.53;14.20;;;8.60;72.80;;;;;;5054119;28;20751;-66
2022/03/23 03:05:25;;;;;;;19.60;14.40;;;8.50;72.00;;;;;;5054742;28;20466;-66
2022/03/23 03:10:35;;;;;;;19.10;14.13;;;8.50;72.00;;;;;;5053718;28;20542;-66
2022/03/23 03:13:01;;;;;;;17.10;14.27;;;8.40;71.90;;;;;;5055212;28;20503;-66
2022/03/23 03:15:27;;;;;;;17.60;14.50;;;8.40;72.10;;;;;;5054560;28;20174;-66
2022/03/23 03:17:57;;;;;;;15.73;13.60;;;8.30;72.40;;;;;;5055185;28;20416;-65
2022/03/23 03:20:23;;;;;;;18.90;14.43;;;8.30;71.70;;;;;;5054591;28;20225;-69
2022/03/23 03:22:49;;;;;;;16.17;14.23;;;8.40;71.70;;;;;;5055024;28;20432;-66
2022/03/23 03:25:16;;;;;;;18.37;15.10;;;8.30;71.90;;;;;;5054968;28;20180;-66
2022/03/23 03:27:43;;;;;;;17.80;14.23;;;8.20;72.10;;;;;;5054244;28;20204;-67
2022/03/23 03:30:12;;;;;;;18.20;13.90;;;8.20;73.00;;;;;;5054708;28;20416;-66
2022/03/23 03:36:18;;;;;;;16.23;13.77;;;8.30;73.40;;;;;;5054931;28;20760;-66
2022/03/23 03:38:44;;;;;;;19.37;15.30;;;8.20;73.60;;;;;;5052908;28;20698;-65
2022/03/23 03:41:10;;;;;;;16.23;13.87;;;8.20;73.40;;;;;;5054669;28;20186;-66
2022/03/23 03:43:36;;;;;;;19.50;14.07;;;8.20;73.60;;;;;;5052839;28;20447;-66
2022/03/23 03:46:02;;;;;;;16.63;14.83;;;8.20;74.10;;;;;;5053725;28;20204;-66
2022/03/23 03:48:28;;;;;;;15.23;13.60;;;8.20;74.30;;;;;;5053874;28;20456;-66
2022/03/23 03:50:54;;;;;;;16.50;13.10;;;8.20;74.40;;;;;;5054254;28;20502;-66
2022/03/23 03:53:20;;;;;;;15.90;13.07;;;8.10;74.30;;;;;;5054411;28;20478;-66
2022/03/23 03:55:46;;;;;;;18.57;14.27;;;8.10;74.70;;;;;;5054082;28;20419;-66
2022/03/23 03:58:17;;;;;;;19.33;15.20;;;8.10;74.70;;;;;;5054362;28;20451;-66
2022/03/23 04:00:43;;;;;;;22.87;15.53;;;8.10;74.50;;;;;;5054119;28;20217;-66
2022/03/23 04:03:08;;;;;;;21.63;15.80;;;8.10;74.90;;;;;;5054283;28;20846;-66
2022/03/23 04:05:34;;;;;;;23.00;16.17;;;8.10;74.70;;;;;;5052339;28;20440;-66
2022/03/23 04:08:01;;;;;;;23.03;17.13;;;8.00;74.70;;;;;;5054081;28;20198;-66
2022/03/23 04:10:27;;;;;;;20.73;16.17;;;8.00;75.00;;;;;;5053486;28;20408;-67
2022/03/23 04:12:53;;;;;;;23.20;16.30;;;7.90;75.30;;;;;;5054127;28;20442;-66
2022/03/23 04:15:20;;;;;;;20.20;16.37;;;8.00;75.80;;;;;;5053962;28;20420;-66
2022/03/23 04:17:46;;;;;;;21.13;16.00;;;8.00;75.90;;;;;;5053674;28;20436;-66
2022/03/23 04:20:13;;;;;;;24.53;15.93;;;8.00;75.70;;;;;;5053501;28;20438;-66
2022/03/23 04:22:39;;;;;;;19.80;16.30;;;8.00;75.70;;;;;;5053279;28;20448;-66
2022/03/23 04:25:10;;;;;;;19.07;15.63;;;8.00;75.90;;;;;;5053856;28;20440;-66
2022/03/23 04:27:53;;;;;;;18.63;15.70;;;8.00;75.90;;;;;;5053214;28;20197;-66
2022/03/23 04:30:24;;;;;;;18.90;16.20;;;8.00;76.00;;;;;;5053743;28;20416;-66
2022/03/23 04:32:51;;;;;;;20.70;15.13;;;8.00;75.80;;;;;;5053380;28;20816;-66
2022/03/23 04:35:18;;;;;;;18.97;15.47;;;8.00;75.40;;;;;;5053626;28;20454;-65
2022/03/23 04:37:44;;;;;;;18.27;15.40;;;8.10;75.70;;;;;;5053010;28;20446;-66
2022/03/23 04:40:14;;;;;;;19.23;17.00;;;7.90;75.40;;;;;;5053244;28;20408;-66
2022/03/23 04:42:40;;;;;;;18.80;14.50;;;7.90;76.20;;;;;;5052903;28;20554;-65
2022/03/23 04:45:07;;;;;;;21.00;14.20;;;7.90;76.60;;;;;;5053447;28;20413;-66
2022/03/23 04:47:34;;;;;;;19.00;15.67;;;7.80;76.20;;;;;;5052769;28;20463;-66
2022/03/23 04:50:05;;;;;;;19.20;17.13;;;7.80;76.50;;;;;;5053399;28;20846;-66
2022/03/23 04:52:30;;;;;;;20.47;16.97;;;7.80;76.70;;;;;;5051453;28;20428;-68
2022/03/23 04:54:56;;;;;;;20.97;16.60;;;7.80;76.70;;;;;;5053255;28;20583;-66
2022/03/23 04:57:24;;;;;;;21.33;15.47;;;7.70;77.00;;;;;;5052940;28;20181;-66
2022/03/23 04:59:50;;;;;;;18.13;15.03;;;7.70;77.30;;;;;;5052503;28;20387;-66
2022/03/23 05:02:16;;;;;;;21.40;18.20;;;7.80;77.80;;;;;;5053192;28;20926;-66
2022/03/23 05:04:43;;;;;;;21.77;17.50;;;7.60;78.00;;;;;;5052434;28;20448;-66
2022/03/23 05:07:08;;;;;;;22.40;17.30;;;7.60;78.20;;;;;;5052986;28;20204;-66
2022/03/23 05:09:34;;;;;;;20.33;16.03;;;7.60;78.30;;;;;;5052374;28;20408;-66
2022/03/23 05:12:00;;;;;;;21.93;15.70;;;7.60;78.80;;;;;;5053000;28;20602;-65
2022/03/23 05:14:25;;;;;;;22.37;17.37;;;7.60;79.10;;;;;;5052973;28;20602;-66
2022/03/23 05:16:51;;;;;;;19.80;16.30;;;7.70;78.90;;;;;;5052053;28;20173;-66
2022/03/23 05:19:17;;;;;;;24.60;16.40;;;7.60;78.90;;;;;;5052755;28;20176;-66
2022/03/23 05:21:42;;;;;;;24.77;19.37;;;7.60;78.70;;;;;;5052201;28;20208;-66
2022/03/23 05:24:08;;;;;;;27.00;17.93;;;7.60;79.20;;;;;;5052874;28;20267;-66
2022/03/23 05:26:34;;;;;;;22.00;16.17;;;7.60;79.70;;;;;;5050961;28;20595;-66
2022/03/23 05:28:59;;;;;;;22.87;16.30;;;7.10;79.20;;;;;;5052696;28;20220;-66
2022/03/23 05:31:25;;;;;;;20.33;17.37;;;7.50;79.90;;;;;;5052430;28;20178;-66
2022/03/23 05:33:51;;;;;;;25.63;18.03;;;7.50;80.00;;;;;;5051870;28;20343;-65
2022/03/23 05:36:17;;;;;;;24.27;16.90;;;7.10;79.80;;;;;;5052612;28;20633;-66
2022/03/23 05:38:42;;;;;;;24.23;16.93;;;7.50;80.50;;;;;;5050828;28;20183;-66
2022/03/23 05:41:08;;;;;;;20.80;18.70;;;7.60;80.40;;;;;;5052879;28;20276;-66
2022/03/23 05:43:34;;;;;;;21.60;17.87;;;7.60;80.40;;;;;;5051697;28;20188;-66
2022/03/23 05:45:59;;;;;;;20.80;15.90;;;7.60;81.70;;;;;;5051363;28;20183;-66
2022/03/23 05:48:25;;;;;;;20.70;15.87;;;7.60;82.60;;;;;;5052203;28;20216;-66
2022/03/23 05:50:51;;;;;;;24.80;17.17;;;7.40;83.70;;;;;;5051898;28;20203;-66
2022/03/23 05:53:16;;;;;;;32.83;19.20;;;7.40;84.50;;;;;;5052222;28;20213;-66
2022/03/23 05:55:42;;;;;;;22.13;17.40;;;7.40;85.20;;;;;;5051891;28;20272;-66
2022/03/23 05:58:09;;;;;;;27.23;17.77;;;7.40;85.50;;;;;;5052058;28;20181;-66
2022/03/23 06:00:35;;;;;;;27.13;17.70;;;7.40;84.60;;;;;;5050104;28;20180;-72
2022/03/23 06:03:00;;;;;;;25.23;17.27;;;7.40;84.10;;;;;;5052024;28;20471;-66
2022/03/23 06:05:26;;;;;;;23.67;19.03;;;7.40;83.50;;;;;;5052320;28;20417;-66
2022/03/23 06:07:52;;;;;;;22.07;17.53;;;7.50;83.00;;;;;;5051713;28;20593;-66
2022/03/23 06:10:18;;;;;;;26.43;18.27;;;7.50;82.80;;;;;;5050825;28;20181;-66
2022/03/23 06:12:43;;;;;;;23.63;19.00;;;7.60;83.40;;;;;;5051330;28;20180;-66
2022/03/23 06:15:11;;;;;;;25.00;17.30;;;7.60;83.50;;;;;;5051555;28;20652;-66
2022/03/23 06:17:37;;;;;;;23.53;16.77;;;7.70;83.90;;;;;;5050877;28;20641;-67
2022/03/23 06:20:04;;;;;;;24.53;18.37;;;7.60;84.00;;;;;;5051941;28;20942;-66
2022/03/23 06:22:30;;;;;;;26.13;17.30;;;7.60;84.60;;;;;;5052268;28;20396;-66
2022/03/23 06:24:55;;;;;;;24.20;20.10;;;7.60;84.60;;;;;;5051345;28;20397;-66
2022/03/23 06:27:21;;;;;;;26.40;17.63;;;7.70;85.10;;;;;;5052452;28;20208;-66
2022/03/23 06:29:47;;;;;;;21.00;16.87;;;7.70;85.40;;;;;;5050164;28;20189;-66
2022/03/23 06:32:13;;;;;;;31.13;17.60;;;7.70;85.50;;;;;;5052099;28;20185;-66
2022/03/23 06:34:38;;;;;;;24.70;16.50;;;7.80;85.40;;;;;;5051473;28;20173;-66
2022/03/23 06:37:04;;;;;;;25.97;18.60;;;7.80;85.80;;;;;;5052089;28;20411;-66
2022/03/23 06:39:32;;;;;;;24.60;19.30;;;7.90;85.70;;;;;;5050894;28;20907;-66
2022/03/23 06:41:58;;;;;;;24.83;18.17;;;7.90;86.10;;;;;;5051367;28;20439;-65
2022/03/23 06:44:24;;;;;;;24.27;18.20;;;8.00;86.90;;;;;;5053581;28;20412;-66
2022/03/23 06:46:50;;;;;;;21.17;17.80;;;8.00;85.90;;;;;;5055272;28;20403;-66
2022/03/23 06:49:16;;;;;;;25.17;17.80;;;8.10;86.00;;;;;;5055620;28;20426;-66
2022/03/23 06:51:42;;;;;;;21.77;16.87;;;8.10;86.10;;;;;;5054416;28;20173;-66
2022/03/23 06:54:08;;;;;;;24.20;17.97;;;8.20;86.00;;;;;;5055597;28;20419;-66
2022/03/23 06:56:34;;;;;;;22.37;17.50;;;8.20;85.50;;;;;;5055524;28;20416;-66
2022/03/23 06:59:00;;;;;;;21.97;18.90;;;8.30;84.70;;;;;;5055132;28;20424;-66
2022/03/23 07:01:26;;;;;;;21.60;16.27;;;8.40;84.80;;;;;;5055604;28;20487;-66
2022/03/23 07:03:52;;;;;;;24.00;16.90;;;8.40;83.00;;;;;;5054669;28;20428;-66
2022/03/23 07:06:18;;;;;;;19.87;16.63;;;8.00;82.50;;;;;;5055422;28;20203;-66
2022/03/23 07:11:29;;;;;;;27.87;19.97;;;8.60;83.40;;;;;;5055408;28;20158;-66
2022/03/23 07:13:56;;;;;;;22.43;17.50;;;8.70;83.50;;;;;;5054912;28;20411;-66
2022/03/23 07:16:21;;;;;;;24.63;19.70;;;8.80;83.20;;;;;;5054237;28;20409;-66
2022/03/23 07:18:48;;;;;;;23.70;18.30;;;8.90;81.00;;;;;;5054517;28;20426;-66
2022/03/23 07:21:13;;;;;;;18.90;15.90;;;9.00;80.20;;;;;;5055063;28;20217;-66
2022/03/23 07:23:39;;;;;;;26.40;18.97;;;9.10;79.40;;;;;;5054086;28;20416;-66
2022/03/23 07:26:06;;;;;;;21.60;17.80;;;9.20;81.00;;;;;;5054683;28;20186;-66
2022/03/23 07:28:32;;;;;;;22.73;18.00;;;9.20;80.90;;;;;;5054517;28;20305;-66
2022/03/23 07:30:58;;;;;;;21.03;17.77;;;9.30;80.80;;;;;;5054045;28;20485;-66
2022/03/23 07:33:25;;;;;;;22.60;17.87;;;9.40;79.90;;;;;;5054460;28;20901;-66
2022/03/23 07:35:51;;;;;;;23.00;17.90;;;9.50;79.70;;;;;;5054447;28;20480;-66
2022/03/23 07:38:18;;;;;;;21.60;18.37;;;9.60;78.30;;;;;;5054707;28;20409;-66
2022/03/23 07:40:43;;;;;;;23.60;17.80;;;9.70;78.40;;;;;;5054330;28;20427;-66
2022/03/23 07:43:09;;;;;;;20.47;17.10;;;9.80;76.80;;;;;;5054659;28;20468;-66
2022/03/23 07:45:35;;;;;;;25.90;17.43;;;10.10;75.30;;;;;;5054624;28;20181;-66
2022/03/23 07:48:01;;;;;;;20.20;17.40;;;10.00;74.50;;;;;;5053704;28;20235;-66
2022/03/23 07:50:27;;;;;;;23.93;17.20;;;10.20;74.60;;;;;;5052771;28;20182;-66
2022/03/23 07:52:59;;;;;;;21.10;18.80;;;10.30;75.70;;;;;;5051604;28;20633;-66
2022/03/23 07:55:25;;;;;;;20.90;17.70;;;10.40;75.60;;;;;;5052493;28;20509;-66
2022/03/23 07:57:51;;;;;;;25.43;18.57;;;10.50;75.00;;;;;;5053749;28;20445;-66
2022/03/23 08:00:17;;;;;;;24.50;18.87;;;10.60;74.40;;;;;;5054118;28;20498;-66
2022/03/23 08:02:44;;;;;;;23.07;20.20;;;10.70;74.20;;;;;;5053317;28;20182;-67
2022/03/23 08:05:10;;;;;;;23.83;18.10;;;10.70;73.70;;;;;;5054409;28;20188;-66
2022/03/23 08:07:35;;;;;;;26.87;19.43;;;10.80;71.90;;;;;;5054306;28;20549;-66
2022/03/23 08:10:02;;;;;;;24.63;18.60;;;10.90;71.70;;;;;;5053225;28;20490;-66
2022/03/23 08:12:28;;;;;;;26.60;19.10;;;11.00;73.00;;;;;;5053772;28;20439;-66
2022/03/23 08:14:54;;;;;;;28.10;20.23;;;11.10;71.10;;;;;;5052753;28;20456;-66
2022/03/23 08:17:19;;;;;;;29.27;20.60;;;11.20;70.90;;;;;;5053906;28;20417;-66
2022/03/23 08:20:32;;;;;;;27.97;19.97;;;11.30;71.00;;;;;;5053031;28;20224;-66
2022/03/23 08:22:31;;;;;;;32.57;21.33;;;11.40;70.80;;;;;;5053824;28;20210;-66
2022/03/23 08:24:57;;;;;;;27.60;22.27;;;11.50;70.70;;;;;;5052017;28;20460;-66
2022/03/23 08:27:22;;;;;;;35.37;21.73;;;11.60;71.90;;;;;;5053535;28;20239;-66
2022/03/23 08:29:48;;;;;;;31.77;23.10;;;11.80;71.70;;;;;;5052200;28;20183;-66
2022/03/23 08:32:22;;;;;;;34.73;24.23;;;11.90;71.20;;;;;;5052034;28;20259;-66
2022/03/23 08:34:49;;;;;;;29.37;22.50;;;12.00;73.40;;;;;;5053387;28;20536;-66
2022/03/23 08:37:16;;;;;;;26.30;21.13;;;12.10;73.80;;;;;;5053583;28;20434;-66
2022/03/23 08:39:42;;;;;;;27.40;22.43;;;12.20;72.30;;;;;;5053669;28;20412;-74
2022/03/23 08:42:07;;;;;;;29.70;23.37;;;12.30;71.40;;;;;;5053999;28;20415;-66
2022/03/23 08:44:33;;;;;;;32.07;23.43;;;12.50;71.10;;;;;;5053249;28;20419;-66
2022/03/23 08:46:59;;;;;;;28.10;23.27;;;12.60;71.50;;;;;;5052778;28;20173;-66
2022/03/23 08:49:24;;;;;;;37.27;24.97;;;12.70;72.80;;;;;;5053636;28;20579;-66
2022/03/23 08:51:50;;;;;;;28.63;24.57;;;12.80;73.70;;;;;;5052758;28;20408;-66
2022/03/23 08:54:16;;;;;;;32.00;23.83;;;12.90;74.00;;;;;;5053146;28;20183;-66
2022/03/23 08:56:42;;;;;;;28.70;23.70;;;13.00;71.90;;;;;;5052993;28;20452;-66
2022/03/23 08:59:08;;;;;;;33.00;24.10;;;13.20;71.00;;;;;;5051965;28;20185;-66
2022/03/23 09:01:33;;;;;;;31.03;23.00;;;13.30;71.90;;;;;;5052843;28;20425;-66
2022/03/23 09:04:03;;;;;;;27.63;21.90;;;13.40;72.70;;;;;;5052588;28;20197;-66
2022/03/23 09:06:29;;;;;;;27.40;21.80;;;13.60;73.50;;;;;;5053025;28;20173;-66
2022/03/23 09:08:55;;;;;;;26.30;20.40;;;13.80;70.20;;;;;;5052352;28;20564;-66
2022/03/23 09:11:24;;;;;;;24.93;21.17;;;13.90;67.00;;;;;;5051786;28;20396;-66
2022/03/23 09:13:50;;;;;;;29.30;21.10;;;14.00;66.20;;;;;;5052349;28;20417;-66
2022/03/23 09:16:16;;;;;;;24.50;20.70;;;14.20;66.20;;;;;;5052960;28;20737;-67
2022/03/23 09:18:41;;;;;;;21.73;19.17;;;14.30;62.90;;;;;;5052515;28;20285;-67
2022/03/23 09:21:07;;;;;;;24.33;20.20;;;14.40;63.10;;;;;;5052141;28;20225;-66
2022/03/23 09:23:35;;;;;;;25.47;19.20;;;14.60;60.40;;;;;;5052412;28;20585;-67
2022/03/23 09:26:01;;;;;;;22.50;19.30;;;14.80;59.40;;;;;;5052159;28;20175;-67
2022/03/23 09:28:27;;;;;;;26.07;20.20;;;14.90;60.20;;;;;;5052602;28;20840;-67
2022/03/23 09:30:52;;;;;;;22.80;20.00;;;15.10;61.30;;;;;;5050625;28;20264;-66
2022/03/23 09:33:18;;;;;;;22.60;18.90;;;15.40;61.30;;;;;;5051539;28;20232;-67
2022/03/23 09:35:44;;;;;;;21.03;18.73;;;15.70;63.90;;;;;;5052399;28;20180;-67
2022/03/23 09:38:11;;;;;;;23.93;19.03;;;16.00;60.70;;;;;;5052292;28;20169;-67
2022/03/23 09:40:38;;;;;;;20.67;18.47;;;16.40;58.50;;;;;;5052407;28;20189;-67
2022/03/23 09:43:09;;;;;;;22.00;19.70;;;16.80;58.50;;;;;;5051866;28;20423;-67
2022/03/23 09:45:48;;;;;;;25.50;21.37;;;17.30;59.00;;;;;;5051287;28;20416;-67
2022/03/23 09:48:21;;;;;;;23.50;21.07;;;17.80;56.30;;;;;;5052557;28;20452;-67
2022/03/23 09:50:52;;;;;;;19.80;16.70;;;18.20;53.80;;;;;;5052030;28;20865;-68
2022/03/23 09:53:21;;;;;;;20.70;17.60;;;18.60;48.80;;;;;;5052325;28;20408;-67
2022/03/23 09:55:48;;;;;;;23.17;20.77;;;19.00;51.30;;;;;;5050706;28;20412;-71
2022/03/23 09:58:14;;;;;;;22.50;20.13;;;19.40;51.50;;;;;;5052341;28;20412;-67
2022/03/23 10:00:44;;;;;;;20.63;18.33;;;19.80;50.10;;;;;;5052454;28;20764;-67
2022/03/23 10:03:09;;;;;;;22.47;18.70;;;20.20;50.10;;;;;;5051765;28;20182;-67
2022/03/23 10:06:21;;;;;;;22.33;19.10;;;20.60;47.90;;;;;;5034331;28;20462;-67
2022/03/23 10:08:59;;;;;;;21.10;17.90;;;21.10;48.10;;;;;;5051322;28;20664;-71
2022/03/23 10:12:02;;;;;;;21.30;19.00;;;21.40;47.40;;;;;;5052294;28;20401;-67
2022/03/23 10:14:57;;;;;;;22.80;20.37;;;21.80;45.10;;;;;;5052188;28;20400;-67
2022/03/23 10:17:31;;;;;;;24.53;19.63;;;22.00;43.00;;;;;;5032500;28;20420;-67
2022/03/23 10:19:58;;;;;;;20.53;18.37;;;22.20;43.10;;;;;;5055514;28;20513;-67
2022/03/23 10:22:27;;;;;;;23.77;21.40;;;22.60;42.20;;;;;;5056200;28;20506;-67
2022/03/23 10:24:53;;;;;;;25.80;22.50;;;22.90;40.80;;;;;;5055480;28;20407;-67
2022/03/23 10:27:22;;;;;;;25.50;22.77;;;23.10;41.40;;;;;;5055762;28;20812;-67
2022/03/23 10:29:52;;;;;;;25.60;23.00;;;23.30;41.00;;;;;;5054318;28;20622;-73
2022/03/23 10:32:20;;;;;;;25.87;23.27;;;23.60;40.50;;;;;;5055800;28;20485;-67
2022/03/23 10:34:54;;;;;;;26.10;23.20;;;23.80;39.40;;;;;;5055991;28;20416;-66
2022/03/23 10:37:28;;;;;;;28.03;24.60;;;23.90;38.80;;;;;;5055905;28;20860;-67
2022/03/23 10:39:55;;;;;;;26.30;23.60;;;24.10;38.70;;;;;;5055354;28;20408;-67
2022/03/23 10:42:23;;;;;;;25.10;22.50;;;24.20;40.60;;;;;;5055582;28;20784;-67
2022/03/23 10:44:50;;;;;;;21.73;19.53;;;24.20;41.00;;;;;;5055807;28;20550;-67
2022/03/23 10:47:43;;;;;;;22.23;20.20;;;24.40;38.40;;;;;;5055649;28;20404;-67
2022/03/23 10:50:11;;;;;;;21.57;19.40;;;24.30;39.10;;;;;;5053631;28;20911;-67
2022/03/23 10:52:58;;;;;;;20.47;18.67;;;24.20;39.60;;;;;;5054512;28;20782;-67
2022/03/23 10:55:26;;;;;;;17.57;15.97;;;24.30;38.30;;;;;;5055096;28;20427;-67
2022/03/23 11:01:58;;;;;;;19.43;17.63;;;24.70;38.30;;;;;;5055506;28;20435;-67
2022/03/23 11:04:28;;;;;;;19.77;17.90;;;24.90;36.20;;;;;;5055496;28;20461;-66
2022/03/23 11:06:58;;;;;;;19.47;17.57;;;25.00;36.20;;;;;;5054800;28;20400;-67
2022/03/23 11:18:08;;;;;;;16.97;15.47;;;25.00;35.10;;;;;;5054593;28;20406;-68
2022/03/23 11:20:55;;;;;;;16.43;14.83;;;25.10;34.80;;;;;;5054678;28;20463;-67
2022/03/23 11:23:33;;;;;;;17.67;16.30;;;25.20;36.00;;;;;;5053574;28;20586;-67
2022/03/23 11:26:17;;;;;;;17.70;15.10;;;25.30;36.90;;;;;;5054541;28;20880;-67
2022/03/23 11:28:45;;;;;;;16.57;15.00;;;25.30;35.00;;;;;;5055036;28;20463;-67
2022/03/23 11:31:15;;;;;;;15.27;13.97;;;25.40;34.20;;;;;;5051544;28;20939;-67
2022/03/23 11:33:44;;;;;;;17.50;16.00;;;25.60;32.70;;;;;;5055194;28;20430;-67
2022/03/23 11:36:11;;;;;;;15.63;14.13;;;25.70;32.30;;;;;;5053933;28;20417;-67
2022/03/23 11:38:38;;;;;;;16.33;14.70;;;25.70;35.00;;;;;;5054767;28;20474;-67
2022/03/23 11:41:06;;;;;;;16.00;14.50;;;25.70;31.50;;;;;;5054079;28;20451;-68
2022/03/23 11:43:34;;;;;;;16.50;15.00;;;25.60;33.60;;;;;;5054625;28;20454;-67
2022/03/23 11:46:04;;;;;;;17.10;15.47;;;25.70;35.70;;;;;;5053722;28;20455;-67
2022/03/23 11:49:10;;;;;;;15.63;14.23;;;25.70;34.80;;;;;;5054520;28;20487;-67
2022/03/23 11:52:13;;;;;;;17.77;16.07;;;25.70;33.40;;;;;;5053615;28;20420;-67
2022/03/23 11:57:54;;;;;;;17.30;15.60;;;25.40;33.30;;;;;;5054302;28;20428;-67
2022/03/23 12:00:28;;;;;;;16.40;14.80;;;25.40;35.90;;;;;;5054377;28;20412;-67
2022/03/23 12:02:55;;;;;;;20.27;16.40;;;25.40;35.00;;;;;;5053742;28;20405;-75
2022/03/23 12:05:39;;;;;;;17.40;15.67;;;25.20;34.80;;;;;;5054164;28;20438;-67
2022/03/23 12:08:06;;;;;;;18.60;16.77;;;25.10;33.70;;;;;;5053862;28;20458;-67
2022/03/23 12:10:32;;;;;;;18.63;16.83;;;25.20;33.10;;;;;;5054163;28;20396;-67
2022/03/23 12:13:18;;;;;;;17.03;15.30;;;25.20;32.30;;;;;;5052286;28;20443;-67
2022/03/23 12:15:57;;;;;;;19.50;17.73;;;25.20;36.10;;;;;;5054233;28;20404;-67
2022/03/23 12:18:39;;;;;;;17.93;16.43;;;25.20;35.50;;;;;;5054264;28;20411;-67
2022/03/23 12:21:10;;;;;;;17.77;16.07;;;25.30;32.50;;;;;;5053430;28;20538;-67
2022/03/23 12:23:53;;;;;;;17.70;16.00;;;25.30;34.00;;;;;;5054298;28;20411;-67
2022/03/23 12:26:30;;;;;;;18.80;17.00;;;25.20;33.20;;;;;;5053351;28;20754;-67
2022/03/23 12:29:21;;;;;;;17.33;15.73;;;25.30;35.90;;;;;;5053180;28;20448;-68
2022/03/23 12:31:47;;;;;;;18.80;16.80;;;25.10;37.20;;;;;;5053911;28;20420;-67
2022/03/23 12:34:18;;;;;;;19.37;17.40;;;25.10;37.20;;;;;;5053126;28;20420;-67
2022/03/23 12:36:57;;;;;;;19.70;18.00;;;25.10;35.10;;;;;;5054018;28;20208;-67
2022/03/23 12:39:46;;;;;;;19.13;17.40;;;25.10;33.30;;;;;;5052773;28;20423;-67
2022/03/23 12:42:12;;;;;;;18.90;17.07;;;25.00;33.10;;;;;;5052703;28;20417;-67
2022/03/23 12:44:46;;;;;;;18.90;17.10;;;24.90;34.50;;;;;;5053646;28;20428;-66
2022/03/23 12:47:19;;;;;;;20.00;17.90;;;24.80;34.20;;;;;;5052920;28;20162;-67
2022/03/23 12:58:30;;;;;;;20.87;18.87;;;24.30;33.90;;;;;;5053276;28;20404;-66
2022/03/23 13:01:15;;;;;;;20.43;18.43;;;24.30;33.10;;;;;;5053275;28;20427;-67
2022/03/23 13:03:41;;;;;;;20.07;18.20;;;24.30;33.40;;;;;;5053401;28;20423;-67
2022/03/23 13:06:13;;;;;;;19.43;17.73;;;24.30;33.90;;;;;;5052499;28;20408;-67
2022/03/23 13:08:49;;;;;;;17.70;15.90;;;24.30;34.20;;;;;;5052924;28;20563;-67
2022/03/23 13:11:20;;;;;;;23.97;19.83;;;24.10;34.20;;;;;;5050446;28;20427;-67
2022/03/23 13:13:50;;;;;;;20.50;18.40;;;24.00;36.20;;;;;;5052771;28;20405;-67
2022/03/23 13:16:21;;;;;;;19.93;18.13;;;24.00;35.90;;;;;;5051088;28;20827;-66
2022/03/23 13:18:48;;;;;;;20.17;18.37;;;24.00;35.30;;;;;;5052858;28;20416;-67
2022/03/23 13:21:18;;;;;;;20.73;18.83;;;24.00;35.80;;;;;;5051818;28;20554;-67
2022/03/23 13:23:47;;;;;;;20.90;19.00;;;24.10;35.00;;;;;;5052881;28;20427;-67